createdAt,value
2023-02-07T00:01:32.705Z,2.50
2023-02-07T00:03:59.904Z,2.50
2023-02-07T00:06:33.452Z,2.40
2023-02-07T00:09:02.198Z,2.30
2023-02-07T00:11:30.276Z,2.50
2023-02-07T00:13:59.678Z,2.70
2023-02-07T00:16:28.497Z,2.40
2023-02-07T00:18:58.371Z,2.40
2023-02-07T00:21:28.069Z,2.30
2023-02-07T00:23:55.331Z,2.70
2023-02-07T00:26:24.844Z,2.20
2023-02-07T00:28:54.337Z,2.40
2023-02-07T00:31:29.094Z,2.40
2023-02-07T00:34:03.285Z,2.30
2023-02-07T00:36:32.621Z,2.70
2023-02-07T00:39:03.940Z,2.60
2023-02-07T00:41:31.230Z,2.50
2023-02-07T00:44:00.324Z,2.50
2023-02-07T00:46:27.954Z,2.30
2023-02-07T00:48:57.353Z,2.20
2023-02-07T00:51:28.473Z,2.40
2023-02-07T00:53:56.967Z,2.80
2023-02-07T00:56:27.085Z,2.40
2023-02-07T00:58:54.580Z,2.40
2023-02-07T01:01:22.859Z,2.40
2023-02-07T01:03:50.068Z,2.50
2023-02-07T01:06:17.532Z,2.70
2023-02-07T01:08:44.762Z,2.20
2023-02-07T01:11:15.122Z,2.40
2023-02-07T01:13:44.508Z,2.50
2023-02-07T01:16:23.237Z,2.30
2023-02-07T01:18:50.704Z,2.50
2023-02-07T01:21:23.845Z,2.60
2023-02-07T01:23:51.542Z,2.20
2023-02-07T01:26:18.606Z,2.30
2023-02-07T01:28:46.240Z,2.50
2023-02-07T01:31:14.374Z,2.20
2023-02-07T01:33:41.569Z,2.40
2023-02-07T01:36:15.219Z,2.40
2023-02-07T01:38:43.224Z,2.60
2023-02-07T01:41:13.401Z,2.20
2023-02-07T01:44:07.734Z,2.50
2023-02-07T01:46:36.782Z,2.10
2023-02-07T01:49:08.927Z,2.30
2023-02-07T01:51:37.482Z,2.20
2023-02-07T01:54:08.421Z,2.40
2023-02-07T01:56:38.263Z,2.30
2023-02-07T01:59:06.713Z,2.30
2023-02-07T02:04:17.806Z,2.30
2023-02-07T02:06:46.109Z,2.30
2023-02-07T02:09:16.660Z,2.40
2023-02-07T02:12:02.911Z,2.20
2023-02-07T02:14:51.068Z,2.30
2023-02-07T02:17:21.732Z,2.20
2023-02-07T02:20:35.205Z,2.30
2023-02-07T02:23:54.557Z,2.10
2023-02-07T02:26:42.232Z,1.90
2023-02-07T02:29:20.960Z,2.20
2023-02-07T02:32:11.703Z,2.50
2023-02-07T02:34:47.027Z,2.20
2023-02-07T02:37:32.474Z,2.50
2023-02-07T02:40:37.611Z,2.30
2023-02-07T02:43:36.911Z,2.20
2023-02-07T02:46:27.648Z,2.20
2023-02-07T02:48:55.282Z,2.30
2023-02-07T02:51:22.483Z,2.00
2023-02-07T02:53:57.570Z,2.20
2023-02-07T02:56:40.579Z,2.10
2023-02-07T02:59:58.226Z,2.40
2023-02-07T03:02:35.592Z,2.20
2023-02-07T03:05:02.914Z,1.90
2023-02-07T03:08:06.074Z,2.20
2023-02-07T03:10:51.334Z,1.90
2023-02-07T03:13:47.095Z,2.00
2023-02-07T03:16:23.527Z,1.90
2023-02-07T03:19:06.648Z,1.90
2023-02-07T03:21:56.740Z,1.90
2023-02-07T03:24:29.459Z,2.20
2023-02-07T03:26:59.503Z,2.10
2023-02-07T03:29:30.420Z,2.10
2023-02-07T03:32:00.998Z,2.20
2023-02-07T03:34:32.326Z,2.30
2023-02-07T03:37:08.683Z,2.20
2023-02-07T03:39:36.395Z,2.10
2023-02-07T03:42:22.162Z,2.20
2023-02-07T03:44:51.261Z,1.70
2023-02-07T03:47:19.025Z,1.90
2023-02-07T03:49:46.168Z,2.10
2023-02-07T03:52:13.258Z,1.80
2023-02-07T03:54:40.473Z,2.00
2023-02-07T03:57:07.752Z,2.00
2023-02-07T03:59:34.968Z,2.00
2023-02-07T04:02:02.684Z,1.90
2023-02-07T04:04:29.984Z,1.80
2023-02-07T04:06:57.012Z,1.70
2023-02-07T04:09:25.303Z,1.80
2023-02-07T04:11:52.680Z,2.10
2023-02-07T04:14:21.693Z,2.00
2023-02-07T04:16:50.149Z,2.20
2023-02-07T04:19:17.401Z,2.10
2023-02-07T04:21:44.733Z,1.90
2023-02-07T04:24:12.106Z,2.00
2023-02-07T04:26:39.596Z,2.00
2023-02-07T04:29:07.319Z,2.20
2023-02-07T04:31:34.725Z,2.10
2023-02-07T04:34:01.859Z,1.70
2023-02-07T04:36:30.213Z,1.90
2023-02-07T04:38:57.679Z,1.90
2023-02-07T04:41:25.044Z,2.00
2023-02-07T04:43:52.399Z,1.80
2023-02-07T04:46:20.990Z,1.80
2023-02-07T04:48:50.966Z,1.90
2023-02-07T04:51:19.764Z,1.70
2023-02-07T04:53:46.901Z,2.10
2023-02-07T04:56:14.637Z,2.20
2023-02-07T04:58:41.644Z,1.90
2023-02-07T05:01:08.950Z,1.80
2023-02-07T05:03:36.124Z,1.80
2023-02-07T05:06:03.271Z,2.00
2023-02-07T05:08:30.735Z,1.90
2023-02-07T05:10:58.397Z,1.90
2023-02-07T05:13:25.827Z,1.90
2023-02-07T05:15:53.353Z,1.80
2023-02-07T05:18:21.515Z,1.90
2023-02-07T05:20:52.193Z,1.80
2023-02-07T05:23:19.724Z,2.00
2023-02-07T05:25:49.437Z,1.80
2023-02-07T05:28:16.974Z,1.90
2023-02-07T05:30:44.151Z,1.90
2023-02-07T05:33:12.477Z,2.10
2023-02-07T05:35:45.966Z,1.70
2023-02-07T05:38:16.185Z,2.00
2023-02-07T05:40:44.050Z,1.80
2023-02-07T05:43:12.416Z,1.80
2023-02-07T05:45:40.592Z,2.30
2023-02-07T05:48:08.701Z,2.00
2023-02-07T05:50:36.178Z,1.80
2023-02-07T05:53:08.111Z,1.90
2023-02-07T05:55:36.116Z,1.80
2023-02-07T05:58:04.399Z,1.80
2023-02-07T06:00:32.101Z,1.70
2023-02-07T06:02:59.158Z,1.90
2023-02-07T06:05:32.093Z,1.60
2023-02-07T06:07:59.200Z,1.70
2023-02-07T06:10:26.227Z,1.80
2023-02-07T06:12:53.385Z,1.90
2023-02-07T06:15:20.309Z,1.70
2023-02-07T06:17:47.898Z,1.80
2023-02-07T06:20:15.329Z,1.80
2023-02-07T06:22:42.405Z,1.80
2023-02-07T06:25:12.284Z,1.70
2023-02-07T06:27:41.184Z,1.70
2023-02-07T06:30:10.681Z,2.00
2023-02-07T06:32:37.815Z,2.00
2023-02-07T06:35:06.800Z,2.00
2023-02-07T06:37:34.695Z,1.80
2023-02-07T06:40:02.169Z,1.80
2023-02-07T06:42:29.403Z,1.90
2023-02-07T06:44:56.345Z,2.00
2023-02-07T06:47:23.276Z,1.80
2023-02-07T06:49:50.247Z,1.90
2023-02-07T06:52:17.398Z,1.80
2023-02-07T06:54:44.380Z,2.00
2023-02-07T06:57:11.370Z,1.70
2023-02-07T06:59:38.426Z,2.00
2023-02-07T07:02:05.541Z,1.80
2023-02-07T07:04:32.624Z,2.00
2023-02-07T07:06:59.676Z,1.90
2023-02-07T07:09:26.630Z,2.50
2023-02-07T07:11:53.764Z,2.30
2023-02-07T07:14:21.434Z,2.20
2023-02-07T07:16:49.089Z,2.40
2023-02-07T07:19:16.557Z,2.20
2023-02-07T07:21:43.598Z,2.30
2023-02-07T07:24:10.647Z,2.20
2023-02-07T07:26:48.755Z,2.10
2023-02-07T07:29:20.415Z,2.10
2023-02-07T07:31:47.981Z,2.10
2023-02-07T07:34:15.182Z,2.00
2023-02-07T07:36:42.689Z,2.20
2023-02-07T07:39:14.677Z,2.10
2023-02-07T07:41:42.122Z,1.90
2023-02-07T07:44:12.010Z,2.20
2023-02-07T07:46:38.980Z,2.00
2023-02-07T07:49:06.062Z,2.20
2023-02-07T07:51:33.569Z,2.10
2023-02-07T07:54:01.831Z,1.90
2023-02-07T07:56:29.902Z,2.10
2023-02-07T07:58:57.365Z,2.10
2023-02-07T08:01:25.029Z,1.90
2023-02-07T08:03:52.260Z,1.80
2023-02-07T08:06:19.425Z,2.10
2023-02-07T08:08:46.681Z,1.90
2023-02-07T08:11:13.825Z,2.20
2023-02-07T08:13:40.828Z,2.20
2023-02-07T08:16:09.168Z,2.20
2023-02-07T08:18:36.100Z,1.70
2023-02-07T08:21:03.887Z,2.10
2023-02-07T08:23:31.004Z,2.00
2023-02-07T08:25:58.178Z,2.10
2023-02-07T08:28:26.515Z,2.10
2023-02-07T08:30:53.699Z,2.10
2023-02-07T08:33:22.363Z,2.00
2023-02-07T08:35:50.542Z,2.10
2023-02-07T08:38:17.609Z,2.10
2023-02-07T08:40:45.044Z,1.90
2023-02-07T08:43:12.705Z,2.10
2023-02-07T08:45:46.725Z,1.90
2023-02-07T08:48:13.884Z,2.10
2023-02-07T08:50:41.330Z,2.00
2023-02-07T08:53:08.573Z,1.90
2023-02-07T08:55:36.135Z,1.90
2023-02-07T08:58:03.286Z,1.90
2023-02-07T09:00:30.343Z,2.10
2023-02-07T09:02:57.376Z,2.00
2023-02-07T09:05:24.629Z,1.90
2023-02-07T09:07:51.780Z,2.10
2023-02-07T09:10:19.220Z,2.80
2023-02-07T09:12:46.255Z,4.70
2023-02-07T09:15:13.341Z,4.20
2023-02-07T09:17:40.813Z,5.00
2023-02-07T09:20:08.404Z,5.00
2023-02-07T09:22:56.239Z,5.20
2023-02-07T09:25:23.766Z,5.20
2023-02-07T09:27:52.086Z,5.00
2023-02-07T09:30:19.376Z,5.10
2023-02-07T09:32:46.340Z,5.30
2023-02-07T09:35:13.986Z,5.60
2023-02-07T09:37:49.315Z,5.10
2023-02-07T09:40:19.733Z,5.30
2023-02-07T09:42:58.987Z,5.50
2023-02-07T09:45:31.397Z,5.20
2023-02-07T09:48:05.955Z,5.40
2023-02-07T09:50:40.058Z,5.90
2023-02-07T09:53:21.716Z,6.40
2023-02-07T09:56:09.006Z,6.10
2023-02-07T09:59:05.437Z,5.50
2023-02-07T10:01:41.331Z,5.50
2023-02-07T10:04:23.322Z,5.90
2023-02-07T10:06:57.193Z,5.50
2023-02-07T10:09:33.177Z,5.30
2023-02-07T10:12:12.209Z,5.50
2023-02-07T10:14:57.566Z,5.70
2023-02-07T10:17:40.097Z,5.40
2023-02-07T10:20:13.315Z,5.20
2023-02-07T10:23:22.836Z,4.90
2023-02-07T10:26:16.778Z,4.70
2023-02-07T10:28:59.189Z,4.90
2023-02-07T10:31:28.705Z,4.40
2023-02-07T10:34:01.273Z,4.60
2023-02-07T10:36:34.168Z,4.50
2023-02-07T10:39:12.053Z,4.50
2023-02-07T10:41:42.876Z,4.00
2023-02-07T10:44:18.541Z,4.10
2023-02-07T10:46:50.673Z,3.90
2023-02-07T10:49:25.737Z,4.10
2023-02-07T10:51:57.089Z,3.50
2023-02-07T10:54:27.612Z,3.60
2023-02-07T10:57:02.848Z,3.40
2023-02-07T10:59:47.307Z,3.40
2023-02-07T11:02:32.232Z,3.20
2023-02-07T11:05:04.202Z,3.30
2023-02-07T11:07:42.538Z,3.40
2023-02-07T11:10:20.184Z,3.80
2023-02-07T11:12:49.826Z,5.40
2023-02-07T11:15:20.083Z,7.20
2023-02-07T11:17:53.423Z,9.40
2023-02-07T11:20:41.512Z,11.50
2023-02-07T11:23:15.625Z,13.90
2023-02-07T11:25:49.032Z,12.50
2023-02-07T11:28:24.352Z,12.20
2023-02-07T11:31:19.558Z,12.10
2023-02-07T11:33:48.310Z,11.90
2023-02-07T11:36:19.194Z,12.40
2023-02-07T11:38:57.044Z,12.20
2023-02-07T11:41:33.172Z,11.50
2023-02-07T11:44:02.933Z,11.40
2023-02-07T11:46:37.023Z,11.00
2023-02-07T11:49:09.343Z,11.00
2023-02-07T11:51:36.912Z,10.20
2023-02-07T11:54:06.458Z,10.20
2023-02-07T11:56:39.921Z,10.10
2023-02-07T11:59:16.683Z,10.10
2023-02-07T12:01:50.344Z,9.60
2023-02-07T12:04:24.763Z,9.30
2023-02-07T12:07:01.598Z,8.30
2023-02-07T12:09:39.831Z,8.50
2023-02-07T12:12:18.451Z,8.10
2023-02-07T12:15:00.781Z,7.70
2023-02-07T12:17:38.216Z,8.00
2023-02-07T12:20:14.014Z,7.70
2023-02-07T12:23:40.861Z,7.60
2023-02-07T12:26:24.850Z,7.60
2023-02-07T12:29:26.069Z,7.30
2023-02-07T12:32:11.276Z,7.30
2023-02-07T12:34:50.344Z,7.00
2023-02-07T12:37:40.612Z,6.90
2023-02-07T12:40:25.141Z,6.70
2023-02-07T12:42:58.048Z,6.50
2023-02-07T12:46:11.110Z,5.90
2023-02-07T12:48:56.957Z,5.60
2023-02-07T12:51:37.354Z,5.50
2023-02-07T12:54:10.322Z,5.50
2023-02-07T12:56:52.316Z,5.00
2023-02-07T12:59:43.523Z,5.00
2023-02-07T13:02:16.733Z,4.80
2023-02-07T13:05:02.396Z,4.60
2023-02-07T13:07:35.375Z,4.60
2023-02-07T13:10:27.516Z,4.40
2023-02-07T13:12:57.424Z,4.10
2023-02-07T13:15:47.776Z,4.10
2023-02-07T13:18:42.819Z,4.10
2023-02-07T13:21:48.485Z,3.80
2023-02-07T13:24:19.687Z,3.80
2023-02-07T13:26:53.181Z,3.80
2023-02-07T13:29:22.532Z,3.90
2023-02-07T13:31:58.242Z,3.30
2023-02-07T13:34:29.327Z,3.40
2023-02-07T13:37:00.727Z,3.50
2023-02-07T13:39:55.347Z,3.10
2023-02-07T13:42:41.322Z,3.00
2023-02-07T13:45:17.711Z,3.00
2023-02-07T13:47:44.658Z,2.80
2023-02-07T13:50:42.733Z,2.70
2023-02-07T13:53:25.064Z,2.70
2023-02-07T13:55:52.389Z,2.70
2023-02-07T13:58:53.573Z,2.80
2023-02-07T14:01:26.833Z,2.80
2023-02-07T14:04:12.657Z,2.50
2023-02-07T14:06:43.032Z,2.40
2023-02-07T14:09:22.599Z,2.10
2023-02-07T14:12:06.841Z,2.30
2023-02-07T14:14:40.188Z,2.20
2023-02-07T14:17:09.227Z,2.20
2023-02-07T14:19:45.728Z,2.10
2023-02-07T14:22:22.157Z,2.20
2023-02-07T14:25:20.139Z,2.10
2023-02-07T14:27:53.585Z,2.30
2023-02-07T14:30:49.673Z,2.30
2023-02-07T14:33:22.898Z,1.90
2023-02-07T14:36:11.710Z,2.00
2023-02-07T14:39:02.303Z,1.80
2023-02-07T14:41:32.790Z,2.20
2023-02-07T14:44:09.434Z,1.90
2023-02-07T14:46:43.136Z,1.90
2023-02-07T14:49:13.226Z,1.80
2023-02-07T14:51:48.573Z,1.80
2023-02-07T14:54:18.499Z,2.00
2023-02-07T14:57:07.990Z,1.70
2023-02-07T14:59:45.575Z,2.00
2023-02-07T15:02:36.804Z,1.90
2023-02-07T15:05:19.222Z,2.00
2023-02-07T15:07:47.446Z,1.50
2023-02-07T15:10:26.775Z,2.10
2023-02-07T15:12:55.059Z,1.90
2023-02-07T15:15:51.473Z,2.00
2023-02-07T15:18:21.246Z,1.80
2023-02-07T15:20:56.311Z,1.70
2023-02-07T15:23:26.307Z,1.80
2023-02-07T15:25:53.385Z,1.90
2023-02-07T15:28:27.404Z,1.70
2023-02-07T15:30:58.750Z,1.70
2023-02-07T15:33:28.420Z,1.60
2023-02-07T15:35:55.599Z,2.00
2023-02-07T15:38:25.385Z,1.60
2023-02-07T15:40:54.520Z,2.40
2023-02-07T15:43:31.085Z,1.90
2023-02-07T15:46:19.662Z,1.80
2023-02-07T15:48:54.528Z,1.80
2023-02-07T15:51:33.413Z,2.00
2023-02-07T15:54:01.990Z,1.90
2023-02-07T15:56:30.980Z,1.70
2023-02-07T15:59:03.592Z,2.20
2023-02-07T16:01:31.090Z,2.00
2023-02-07T16:03:58.686Z,1.60
2023-02-07T16:06:31.133Z,1.80
2023-02-07T16:09:03.291Z,1.80
2023-02-07T16:11:30.696Z,2.00
2023-02-07T16:14:03.750Z,1.70
2023-02-07T16:16:39.582Z,1.70
2023-02-07T16:19:15.894Z,1.70
2023-02-07T16:21:44.674Z,1.70
2023-02-07T16:24:27.792Z,1.50
2023-02-07T16:26:55.970Z,1.80
2023-02-07T16:29:26.431Z,1.70
2023-02-07T16:31:55.121Z,1.60
2023-02-07T16:34:23.664Z,1.50
2023-02-07T16:36:53.812Z,1.60
2023-02-07T16:39:21.651Z,1.50
2023-02-07T16:41:52.792Z,2.00
2023-02-07T16:44:24.510Z,2.00
2023-02-07T16:46:52.424Z,1.70
2023-02-07T16:49:24.634Z,1.60
2023-02-07T16:51:55.974Z,1.90
2023-02-07T16:54:28.201Z,1.80
2023-02-07T17:00:09.447Z,1.60
2023-02-07T17:02:52.014Z,1.70
2023-02-07T17:05:26.987Z,1.80
2023-02-07T17:07:58.399Z,1.80
2023-02-07T17:10:32.837Z,1.90
2023-02-07T17:13:04.513Z,2.10
2023-02-07T17:15:47.062Z,2.50
2023-02-07T17:18:37.065Z,3.00
2023-02-07T17:21:13.877Z,3.80
2023-02-07T17:23:44.007Z,3.90
2023-02-07T17:26:33.215Z,4.00
2023-02-07T17:29:17.949Z,3.80
2023-02-07T17:31:50.738Z,3.60
2023-02-07T17:34:24.295Z,4.40
2023-02-07T17:36:57.426Z,4.00
2023-02-07T17:39:25.373Z,3.90
2023-02-07T17:41:52.371Z,3.30
2023-02-07T17:44:24.449Z,4.10
2023-02-07T17:46:52.590Z,3.50
2023-02-07T17:49:19.726Z,3.40
2023-02-07T17:51:46.726Z,3.20
2023-02-07T17:54:14.899Z,3.30
2023-02-07T17:56:41.927Z,3.30
2023-02-07T17:59:21.772Z,3.50
2023-02-07T18:01:48.772Z,3.70
2023-02-07T18:04:15.862Z,4.50
2023-02-07T18:06:42.861Z,3.80
2023-02-07T18:09:18.885Z,3.90
2023-02-07T18:11:45.915Z,3.60
2023-02-07T18:14:13.144Z,3.90
2023-02-07T18:16:41.846Z,3.50
2023-02-07T18:19:14.510Z,3.70
2023-02-07T18:21:41.481Z,3.50
2023-02-07T18:24:08.928Z,3.70
2023-02-07T18:26:35.985Z,3.80
2023-02-07T18:29:03.236Z,3.40
2023-02-07T18:31:30.311Z,3.30
2023-02-07T18:33:57.324Z,3.40
2023-02-07T18:36:26.932Z,3.40
2023-02-07T18:38:54.182Z,3.10
2023-02-07T18:41:23.635Z,3.10
2023-02-07T18:43:50.888Z,3.40
2023-02-07T18:46:20.415Z,3.30
2023-02-07T18:48:51.181Z,3.10
2023-02-07T18:51:19.647Z,3.00
2023-02-07T18:53:47.190Z,3.40
2023-02-07T18:56:20.094Z,3.10
2023-02-07T18:58:48.305Z,3.10
2023-02-07T19:01:19.279Z,3.30
2023-02-07T19:03:54.400Z,2.90
2023-02-07T19:06:22.878Z,3.10
2023-02-07T19:08:51.116Z,3.00
2023-02-07T19:11:18.255Z,3.00
2023-02-07T19:13:45.623Z,3.30
2023-02-07T19:16:15.935Z,3.20
2023-02-07T19:18:42.988Z,2.90
2023-02-07T19:21:13.230Z,3.10
2023-02-07T19:23:41.214Z,3.40
2023-02-07T19:26:09.051Z,3.50
2023-02-07T19:28:37.530Z,3.10
2023-02-07T19:31:09.754Z,2.90
2023-02-07T19:33:37.120Z,2.90
2023-02-07T19:36:09.490Z,3.00
2023-02-07T19:38:36.945Z,3.10
2023-02-07T19:41:04.877Z,2.70
2023-02-07T19:43:36.189Z,2.80
2023-02-07T19:46:03.515Z,2.80
2023-02-07T19:48:30.517Z,3.30
2023-02-07T19:51:03.842Z,3.60
2023-02-07T19:53:31.964Z,3.00
2023-02-07T19:56:11.608Z,3.10
2023-02-07T19:58:41.929Z,3.00
2023-02-07T20:01:09.370Z,3.20
2023-02-07T20:03:37.337Z,3.30
2023-02-07T20:06:09.859Z,3.10
2023-02-07T20:08:39.544Z,2.90
2023-02-07T20:11:15.460Z,2.90
2023-02-07T20:13:46.084Z,2.70
2023-02-07T20:16:17.176Z,3.10
2023-02-07T20:18:44.555Z,2.40
2023-02-07T20:21:15.768Z,2.90
2023-02-07T20:23:46.924Z,2.70
2023-02-07T20:26:17.954Z,2.80
2023-02-07T20:28:50.228Z,2.80
2023-02-07T20:31:20.572Z,2.90
2023-02-07T20:33:47.695Z,3.10
2023-02-07T20:36:17.420Z,3.00
2023-02-07T20:38:45.964Z,3.20
2023-02-07T20:41:29.297Z,3.10
2023-02-07T20:44:22.198Z,2.90
2023-02-07T20:46:51.106Z,2.70
2023-02-07T20:49:27.140Z,2.90
2023-02-07T20:51:55.516Z,2.60
2023-02-07T20:54:26.033Z,2.70
2023-02-07T20:56:54.380Z,3.40
2023-02-07T20:59:24.248Z,3.20
2023-02-07T21:01:51.463Z,3.20
2023-02-07T21:04:19.736Z,3.30
2023-02-07T21:06:46.720Z,3.90
2023-02-07T21:09:15.230Z,3.60
2023-02-07T21:11:45.515Z,3.50
2023-02-07T21:14:26.000Z,3.80
2023-02-07T21:16:55.036Z,4.00
2023-02-07T21:19:23.363Z,4.10
2023-02-07T21:21:51.395Z,3.80
2023-02-07T21:24:19.566Z,4.10
2023-02-07T21:26:50.927Z,4.10
2023-02-07T21:29:22.582Z,4.20
2023-02-07T21:31:50.686Z,4.60
2023-02-07T21:34:21.393Z,4.20
2023-02-07T21:36:49.408Z,4.00
2023-02-07T21:39:17.357Z,4.10
2023-02-07T21:41:46.195Z,4.10
2023-02-07T21:44:14.478Z,4.10
2023-02-07T21:46:45.427Z,3.60
2023-02-07T21:49:14.836Z,4.00
2023-02-07T21:51:43.909Z,3.80
2023-02-07T21:54:10.959Z,3.80
2023-02-07T21:56:41.098Z,3.80
2023-02-07T21:59:15.559Z,3.70
2023-02-07T22:01:43.828Z,3.40
2023-02-07T22:04:11.646Z,3.70
2023-02-07T22:06:42.139Z,3.60
2023-02-07T22:09:12.174Z,3.10
2023-02-07T22:11:39.166Z,3.30
2023-02-07T22:14:06.459Z,3.20
2023-02-07T22:16:35.423Z,3.40
2023-02-07T22:19:06.938Z,3.30
2023-02-07T22:21:36.956Z,3.30
2023-02-07T22:24:05.954Z,3.20
2023-02-07T22:26:34.382Z,3.10
2023-02-07T22:29:02.623Z,3.40
2023-02-07T22:31:31.797Z,3.00
2023-02-07T22:34:19.327Z,3.00
2023-02-07T22:36:46.707Z,2.50
2023-02-07T22:39:16.082Z,2.80
2023-02-07T22:41:43.351Z,3.00
2023-02-07T22:44:11.094Z,2.70
2023-02-07T22:46:38.601Z,3.00
2023-02-07T22:49:05.585Z,3.00
2023-02-07T22:51:35.941Z,2.80
2023-02-07T22:54:09.917Z,2.90
2023-02-07T22:56:38.395Z,2.80
2023-02-07T22:59:07.098Z,2.70
2023-02-07T23:01:37.079Z,2.80
2023-02-07T23:04:06.340Z,2.80
2023-02-07T23:06:33.531Z,2.70
2023-02-07T23:09:01.379Z,2.90
2023-02-07T23:11:28.579Z,3.00
2023-02-07T23:13:55.736Z,2.70
2023-02-07T23:16:25.433Z,3.10
2023-02-07T23:18:56.470Z,2.90
2023-02-07T23:21:25.858Z,2.60
2023-02-07T23:23:53.431Z,3.20
2023-02-07T23:26:23.043Z,2.90
2023-02-07T23:28:50.697Z,2.90
2023-02-07T23:31:21.085Z,2.80
2023-02-07T23:33:49.408Z,2.60
2023-02-07T23:36:17.818Z,2.80
2023-02-07T23:38:46.089Z,2.60
2023-02-07T23:41:13.828Z,2.70
2023-02-07T23:43:41.081Z,2.80
2023-02-07T23:46:09.153Z,3.10
2023-02-07T23:48:38.545Z,2.40
2023-02-07T23:51:07.347Z,2.70
2023-02-07T23:53:35.307Z,2.70
2023-02-07T23:56:04.727Z,2.50
2023-02-07T23:58:33.002Z,2.60
